sensor_id;sensor_type;location;lat;lon;timestamp;temperature;humidity
19586;DHT22;9939;49.246;9.106;2023-07-30T00:00:32;18.60;99.90
19586;DHT22;9939;49.246;9.106;2023-07-30T00:02:59;18.70;99.90
19586;DHT22;9939;49.246;9.106;2023-07-30T00:05:27;18.60;99.90
19586;DHT22;9939;49.246;9.106;2023-07-30T00:07:53;18.50;99.90
19586;DHT22;9939;49.246;9.106;2023-07-30T00:10:21;18.50;99.90
19586;DHT22;9939;49.246;9.106;2023-07-30T00:12:48;18.40;99.90
19586;DHT22;9939;49.246;9.106;2023-07-30T00:15:15;18.50;99.90
19586;DHT22;9939;49.246;9.106;2023-07-30T00:17:42;18.40;99.90
19586;DHT22;9939;49.246;9.106;2023-07-30T00:20:09;18.30;99.90
19586;DHT22;9939;49.246;9.106;2023-07-30T00:22:35;18.30;99.90
19586;DHT22;9939;49.246;9.106;2023-07-30T00:25:02;18.20;99.90
19586;DHT22;9939;49.246;9.106;2023-07-30T00:27:30;18.40;99.90
19586;DHT22;9939;49.246;9.106;2023-07-30T00:29:57;18.30;99.90
19586;DHT22;9939;49.246;9.106;2023-07-30T00:32:23;18.30;99.90
19586;DHT22;9939;49.246;9.106;2023-07-30T00:34:50;18.10;99.90
19586;DHT22;9939;49.246;9.106;2023-07-30T00:37:17;18.10;99.90
19586;DHT22;9939;49.246;9.106;2023-07-30T00:39:44;18.10;99.90
19586;DHT22;9939;49.246;9.106;2023-07-30T00:42:10;18.00;99.90
19586;DHT22;9939;49.246;9.106;2023-07-30T00:44:37;18.00;99.90
19586;DHT22;9939;49.246;9.106;2023-07-30T00:47:04;17.90;99.90
19586;DHT22;9939;49.246;9.106;2023-07-30T00:49:31;17.80;99.90
19586;DHT22;9939;49.246;9.106;2023-07-30T00:51:58;17.90;99.90
19586;DHT22;9939;49.246;9.106;2023-07-30T00:54:25;17.70;99.90
19586;DHT22;9939;49.246;9.106;2023-07-30T00:56:52;17.70;99.90
19586;DHT22;9939;49.246;9.106;2023-07-30T00:59:20;17.80;99.90
19586;DHT22;9939;49.246;9.106;2023-07-30T01:01:47;17.70;99.90
19586;DHT22;9939;49.246;9.106;2023-07-30T01:04:14;17.70;99.90
19586;DHT22;9939;49.246;9.106;2023-07-30T01:06:41;17.80;99.90
19586;DHT22;9939;49.246;9.106;2023-07-30T01:09:08;17.70;99.90
19586;DHT22;9939;49.246;9.106;2023-07-30T01:11:36;17.80;99.90
19586;DHT22;9939;49.246;9.106;2023-07-30T01:14:05;17.70;99.90
19586;DHT22;9939;49.246;9.106;2023-07-30T01:16:32;17.70;99.90
19586;DHT22;9939;49.246;9.106;2023-07-30T01:18:59;17.70;99.90
19586;DHT22;9939;49.246;9.106;2023-07-30T01:21:27;17.50;99.90
19586;DHT22;9939;49.246;9.106;2023-07-30T01:23:54;17.40;99.90
19586;DHT22;9939;49.246;9.106;2023-07-30T01:26:22;17.40;99.90
19586;DHT22;9939;49.246;9.106;2023-07-30T01:28:51;17.30;99.90
19586;DHT22;9939;49.246;9.106;2023-07-30T01:31:20;17.30;99.90
19586;DHT22;9939;49.246;9.106;2023-07-30T01:33:48;17.20;99.90
19586;DHT22;9939;49.246;9.106;2023-07-30T01:36:18;17.30;99.90
19586;DHT22;9939;49.246;9.106;2023-07-30T01:38:46;17.30;99.90
19586;DHT22;9939;49.246;9.106;2023-07-30T01:41:13;17.20;99.90
19586;DHT22;9939;49.246;9.106;2023-07-30T01:43:40;17.20;99.90
19586;DHT22;9939;49.246;9.106;2023-07-30T01:46:06;17.20;99.90
19586;DHT22;9939;49.246;9.106;2023-07-30T01:48:33;17.20;99.90
19586;DHT22;9939;49.246;9.106;2023-07-30T01:51:00;17.20;99.90
19586;DHT22;9939;49.246;9.106;2023-07-30T01:53:27;17.30;99.90
19586;DHT22;9939;49.246;9.106;2023-07-30T01:55:53;17.60;99.90
19586;DHT22;9939;49.246;9.106;2023-07-30T01:58:20;17.50;99.90
19586;DHT22;9939;49.246;9.106;2023-07-30T02:00:47;17.60;99.90
19586;DHT22;9939;49.246;9.106;2023-07-30T02:03:14;17.60;99.90
19586;DHT22;9939;49.246;9.106;2023-07-30T02:05:41;17.50;99.90
19586;DHT22;9939;49.246;9.106;2023-07-30T02:08:07;17.60;99.90
19586;DHT22;9939;49.246;9.106;2023-07-30T02:10:34;17.50;99.90
19586;DHT22;9939;49.246;9.106;2023-07-30T02:13:01;17.60;99.90
19586;DHT22;9939;49.246;9.106;2023-07-30T02:15:28;17.50;99.90
19586;DHT22;9939;49.246;9.106;2023-07-30T02:17:55;17.60;99.90
19586;DHT22;9939;49.246;9.106;2023-07-30T02:20:22;17.70;99.90
19586;DHT22;9939;49.246;9.106;2023-07-30T02:22:48;17.60;99.90
19586;DHT22;9939;49.246;9.106;2023-07-30T02:25:15;17.60;99.90
19586;DHT22;9939;49.246;9.106;2023-07-30T02:27:42;17.70;99.90
19586;DHT22;9939;49.246;9.106;2023-07-30T02:30:09;17.70;99.90
19586;DHT22;9939;49.246;9.106;2023-07-30T02:32:36;17.70;99.90
19586;DHT22;9939;49.246;9.106;2023-07-30T02:35:03;17.90;99.90
19586;DHT22;9939;49.246;9.106;2023-07-30T02:37:30;17.90;99.90
19586;DHT22;9939;49.246;9.106;2023-07-30T02:39:56;17.80;99.90
19586;DHT22;9939;49.246;9.106;2023-07-30T02:42:23;17.80;99.90
19586;DHT22;9939;49.246;9.106;2023-07-30T02:44:50;17.80;99.90
19586;DHT22;9939;49.246;9.106;2023-07-30T02:47:17;17.80;99.90
19586;DHT22;9939;49.246;9.106;2023-07-30T02:49:44;17.70;99.90
19586;DHT22;9939;49.246;9.106;2023-07-30T02:52:11;17.70;99.90
19586;DHT22;9939;49.246;9.106;2023-07-30T02:54:37;17.80;99.90
19586;DHT22;9939;49.246;9.106;2023-07-30T02:57:04;17.70;99.90
19586;DHT22;9939;49.246;9.106;2023-07-30T02:59:31;17.70;99.90
19586;DHT22;9939;49.246;9.106;2023-07-30T03:01:58;17.80;99.90
19586;DHT22;9939;49.246;9.106;2023-07-30T03:04:25;17.70;99.90
19586;DHT22;9939;49.246;9.106;2023-07-30T03:06:52;17.70;99.90
19586;DHT22;9939;49.246;9.106;2023-07-30T03:09:18;17.40;99.90
19586;DHT22;9939;49.246;9.106;2023-07-30T03:11:45;17.60;99.90
19586;DHT22;9939;49.246;9.106;2023-07-30T03:14:12;17.60;99.90
19586;DHT22;9939;49.246;9.106;2023-07-30T03:16:38;17.50;99.90
19586;DHT22;9939;49.246;9.106;2023-07-30T03:19:05;17.40;99.90
19586;DHT22;9939;49.246;9.106;2023-07-30T03:21:32;17.50;99.90
19586;DHT22;9939;49.246;9.106;2023-07-30T03:24:00;17.40;99.90
19586;DHT22;9939;49.246;9.106;2023-07-30T03:26:26;17.50;99.90
19586;DHT22;9939;49.246;9.106;2023-07-30T03:28:53;17.50;99.90
19586;DHT22;9939;49.246;9.106;2023-07-30T03:31:20;17.70;99.90
19586;DHT22;9939;49.246;9.106;2023-07-30T03:33:47;17.70;99.90
19586;DHT22;9939;49.246;9.106;2023-07-30T03:36:14;17.80;99.90
19586;DHT22;9939;49.246;9.106;2023-07-30T03:38:41;17.60;99.90
19586;DHT22;9939;49.246;9.106;2023-07-30T03:41:08;17.40;99.90
19586;DHT22;9939;49.246;9.106;2023-07-30T03:43:35;17.60;99.90
19586;DHT22;9939;49.246;9.106;2023-07-30T03:46:01;17.70;99.90
19586;DHT22;9939;49.246;9.106;2023-07-30T03:48:30;17.60;99.90
19586;DHT22;9939;49.246;9.106;2023-07-30T03:50:57;17.60;99.90
19586;DHT22;9939;49.246;9.106;2023-07-30T03:53:24;17.50;99.90
19586;DHT22;9939;49.246;9.106;2023-07-30T03:55:53;17.60;99.90
19586;DHT22;9939;49.246;9.106;2023-07-30T03:58:20;17.60;99.90
19586;DHT22;9939;49.246;9.106;2023-07-30T04:00:47;17.60;99.90
19586;DHT22;9939;49.246;9.106;2023-07-30T04:03:13;17.80;99.90
19586;DHT22;9939;49.246;9.106;2023-07-30T04:05:41;17.80;99.90
19586;DHT22;9939;49.246;9.106;2023-07-30T04:08:07;17.70;99.90
19586;DHT22;9939;49.246;9.106;2023-07-30T04:10:34;17.80;99.90
19586;DHT22;9939;49.246;9.106;2023-07-30T04:13:01;17.80;99.90
19586;DHT22;9939;49.246;9.106;2023-07-30T04:15:28;17.80;99.90
19586;DHT22;9939;49.246;9.106;2023-07-30T04:17:54;17.80;99.90
19586;DHT22;9939;49.246;9.106;2023-07-30T04:20:21;17.90;99.90
19586;DHT22;9939;49.246;9.106;2023-07-30T04:22:48;17.80;99.90
19586;DHT22;9939;49.246;9.106;2023-07-30T04:25:15;17.80;99.90
19586;DHT22;9939;49.246;9.106;2023-07-30T04:27:41;17.70;99.90
19586;DHT22;9939;49.246;9.106;2023-07-30T04:30:08;17.70;99.90
19586;DHT22;9939;49.246;9.106;2023-07-30T04:32:35;17.80;99.90
19586;DHT22;9939;49.246;9.106;2023-07-30T04:35:02;17.80;99.90
19586;DHT22;9939;49.246;9.106;2023-07-30T04:37:29;17.80;99.90
19586;DHT22;9939;49.246;9.106;2023-07-30T04:39:56;17.90;99.90
19586;DHT22;9939;49.246;9.106;2023-07-30T04:42:24;18.00;99.90
19586;DHT22;9939;49.246;9.106;2023-07-30T04:44:51;18.00;99.90
19586;DHT22;9939;49.246;9.106;2023-07-30T04:47:18;18.00;99.90
19586;DHT22;9939;49.246;9.106;2023-07-30T04:49:45;18.00;99.90
19586;DHT22;9939;49.246;9.106;2023-07-30T04:52:12;18.10;99.90
19586;DHT22;9939;49.246;9.106;2023-07-30T04:54:39;18.10;99.90
19586;DHT22;9939;49.246;9.106;2023-07-30T04:57:06;18.10;99.90
19586;DHT22;9939;49.246;9.106;2023-07-30T04:59:33;18.10;99.90
19586;DHT22;9939;49.246;9.106;2023-07-30T05:02:03;18.20;99.90
19586;DHT22;9939;49.246;9.106;2023-07-30T05:04:30;18.10;99.90
19586;DHT22;9939;49.246;9.106;2023-07-30T05:06:56;18.10;99.90
19586;DHT22;9939;49.246;9.106;2023-07-30T05:09:23;18.00;99.90
19586;DHT22;9939;49.246;9.106;2023-07-30T05:11:50;18.00;99.90
19586;DHT22;9939;49.246;9.106;2023-07-30T05:14:17;17.90;99.90
19586;DHT22;9939;49.246;9.106;2023-07-30T05:16:43;17.90;99.90
19586;DHT22;9939;49.246;9.106;2023-07-30T05:19:10;17.90;99.90
19586;DHT22;9939;49.246;9.106;2023-07-30T05:21:37;17.80;99.90
19586;DHT22;9939;49.246;9.106;2023-07-30T05:24:04;17.90;99.90
19586;DHT22;9939;49.246;9.106;2023-07-30T05:26:31;18.10;99.90
19586;DHT22;9939;49.246;9.106;2023-07-30T05:28:57;18.00;99.90
19586;DHT22;9939;49.246;9.106;2023-07-30T05:31:25;18.20;99.90
19586;DHT22;9939;49.246;9.106;2023-07-30T05:33:51;18.20;99.90
19586;DHT22;9939;49.246;9.106;2023-07-30T05:36:18;18.30;99.90
19586;DHT22;9939;49.246;9.106;2023-07-30T05:38:45;18.30;99.90
19586;DHT22;9939;49.246;9.106;2023-07-30T05:41:11;18.30;99.90
19586;DHT22;9939;49.246;9.106;2023-07-30T05:43:38;18.20;99.90
19586;DHT22;9939;49.246;9.106;2023-07-30T05:46:05;18.30;99.90
19586;DHT22;9939;49.246;9.106;2023-07-30T05:48:32;18.50;99.90
19586;DHT22;9939;49.246;9.106;2023-07-30T05:50:58;18.50;99.90
19586;DHT22;9939;49.246;9.106;2023-07-30T05:53:25;18.70;99.90
19586;DHT22;9939;49.246;9.106;2023-07-30T05:55:52;18.80;99.90
19586;DHT22;9939;49.246;9.106;2023-07-30T05:58:19;18.70;99.90
19586;DHT22;9939;49.246;9.106;2023-07-30T06:00:46;18.60;99.90
19586;DHT22;9939;49.246;9.106;2023-07-30T06:03:12;18.70;99.90
19586;DHT22;9939;49.246;9.106;2023-07-30T06:05:42;18.70;99.90
19586;DHT22;9939;49.246;9.106;2023-07-30T06:08:09;18.90;99.90
19586;DHT22;9939;49.246;9.106;2023-07-30T06:10:37;19.00;99.90
19586;DHT22;9939;49.246;9.106;2023-07-30T06:13:04;19.10;99.90
19586;DHT22;9939;49.246;9.106;2023-07-30T06:15:32;19.20;99.90
19586;DHT22;9939;49.246;9.106;2023-07-30T06:18:00;19.30;99.90
19586;DHT22;9939;49.246;9.106;2023-07-30T06:20:27;19.50;99.90
19586;DHT22;9939;49.246;9.106;2023-07-30T06:22:54;19.80;99.90
19586;DHT22;9939;49.246;9.106;2023-07-30T06:25:21;19.70;99.90
19586;DHT22;9939;49.246;9.106;2023-07-30T06:27:48;19.60;99.90
19586;DHT22;9939;49.246;9.106;2023-07-30T06:30:15;19.60;99.90
19586;DHT22;9939;49.246;9.106;2023-07-30T06:32:41;19.50;99.90
19586;DHT22;9939;49.246;9.106;2023-07-30T06:35:08;19.50;99.90
19586;DHT22;9939;49.246;9.106;2023-07-30T06:37:35;19.40;99.90
19586;DHT22;9939;49.246;9.106;2023-07-30T06:40:02;19.20;99.90
19586;DHT22;9939;49.246;9.106;2023-07-30T06:42:32;19.10;99.90
19586;DHT22;9939;49.246;9.106;2023-07-30T06:44:59;19.10;99.90
19586;DHT22;9939;49.246;9.106;2023-07-30T06:47:26;19.20;99.90
19586;DHT22;9939;49.246;9.106;2023-07-30T06:49:53;19.00;99.90
19586;DHT22;9939;49.246;9.106;2023-07-30T06:52:20;19.00;99.90
19586;DHT22;9939;49.246;9.106;2023-07-30T06:54:47;19.10;99.90
19586;DHT22;9939;49.246;9.106;2023-07-30T06:57:13;19.00;99.90
19586;DHT22;9939;49.246;9.106;2023-07-30T06:59:40;18.90;99.90
19586;DHT22;9939;49.246;9.106;2023-07-30T07:02:07;19.00;99.90
19586;DHT22;9939;49.246;9.106;2023-07-30T07:04:34;18.80;99.90
19586;DHT22;9939;49.246;9.106;2023-07-30T07:07:01;18.80;99.90
19586;DHT22;9939;49.246;9.106;2023-07-30T07:09:30;18.90;99.90
19586;DHT22;9939;49.246;9.106;2023-07-30T07:11:57;18.90;99.90
19586;DHT22;9939;49.246;9.106;2023-07-30T07:14:24;19.10;99.90
19586;DHT22;9939;49.246;9.106;2023-07-30T07:16:51;19.10;99.90
19586;DHT22;9939;49.246;9.106;2023-07-30T07:19:18;19.20;99.90
19586;DHT22;9939;49.246;9.106;2023-07-30T07:21:45;19.30;99.90
19586;DHT22;9939;49.246;9.106;2023-07-30T07:24:12;19.50;99.90
19586;DHT22;9939;49.246;9.106;2023-07-30T07:26:38;19.40;99.90
19586;DHT22;9939;49.246;9.106;2023-07-30T07:29:05;19.30;99.90
19586;DHT22;9939;49.246;9.106;2023-07-30T07:31:32;19.40;99.90
19586;DHT22;9939;49.246;9.106;2023-07-30T07:34:01;19.50;99.90
19586;DHT22;9939;49.246;9.106;2023-07-30T07:36:28;19.40;99.90
19586;DHT22;9939;49.246;9.106;2023-07-30T07:38:55;19.50;99.90
19586;DHT22;9939;49.246;9.106;2023-07-30T07:41:21;19.50;99.90
19586;DHT22;9939;49.246;9.106;2023-07-30T07:43:48;19.40;99.90
19586;DHT22;9939;49.246;9.106;2023-07-30T07:46:15;19.30;99.90
19586;DHT22;9939;49.246;9.106;2023-07-30T07:48:43;19.30;99.90
19586;DHT22;9939;49.246;9.106;2023-07-30T07:51:10;19.30;99.90
19586;DHT22;9939;49.246;9.106;2023-07-30T07:53:37;19.10;99.90
19586;DHT22;9939;49.246;9.106;2023-07-30T07:56:04;19.00;99.90
19586;DHT22;9939;49.246;9.106;2023-07-30T07:58:31;18.80;99.90
19586;DHT22;9939;49.246;9.106;2023-07-30T08:00:58;18.60;99.90
19586;DHT22;9939;49.246;9.106;2023-07-30T08:03:25;18.70;99.90
19586;DHT22;9939;49.246;9.106;2023-07-30T08:05:53;18.60;99.90
19586;DHT22;9939;49.246;9.106;2023-07-30T08:08:20;18.70;99.90
19586;DHT22;9939;49.246;9.106;2023-07-30T08:10:47;18.60;99.90
19586;DHT22;9939;49.246;9.106;2023-07-30T08:13:14;18.60;99.90
19586;DHT22;9939;49.246;9.106;2023-07-30T08:15:41;18.70;99.90
19586;DHT22;9939;49.246;9.106;2023-07-30T08:18:08;18.70;99.90
19586;DHT22;9939;49.246;9.106;2023-07-30T08:20:35;18.60;99.90
19586;DHT22;9939;49.246;9.106;2023-07-30T08:23:02;18.60;99.90
19586;DHT22;9939;49.246;9.106;2023-07-30T08:25:29;18.90;99.90
19586;DHT22;9939;49.246;9.106;2023-07-30T08:27:55;18.90;99.90
19586;DHT22;9939;49.246;9.106;2023-07-30T08:30:22;19.20;99.90
19586;DHT22;9939;49.246;9.106;2023-07-30T08:32:49;19.40;99.90
19586;DHT22;9939;49.246;9.106;2023-07-30T08:35:16;19.70;99.90
19586;DHT22;9939;49.246;9.106;2023-07-30T08:37:43;20.00;99.90
19586;DHT22;9939;49.246;9.106;2023-07-30T08:40:09;20.40;99.90
19586;DHT22;9939;49.246;9.106;2023-07-30T08:42:36;20.70;99.90
19586;DHT22;9939;49.246;9.106;2023-07-30T08:45:06;20.90;99.90
19586;DHT22;9939;49.246;9.106;2023-07-30T08:47:34;21.20;99.90
19586;DHT22;9939;49.246;9.106;2023-07-30T08:50:02;21.10;99.90
19586;DHT22;9939;49.246;9.106;2023-07-30T08:52:29;21.00;99.90
19586;DHT22;9939;49.246;9.106;2023-07-30T08:54:56;21.00;99.90
19586;DHT22;9939;49.246;9.106;2023-07-30T08:57:24;21.40;99.90
19586;DHT22;9939;49.246;9.106;2023-07-30T09:00:00;21.80;99.90
19586;DHT22;9939;49.246;9.106;2023-07-30T09:05:02;21.50;99.90
19586;DHT22;9939;49.246;9.106;2023-07-30T09:07:29;21.50;99.90
19586;DHT22;9939;49.246;9.106;2023-07-30T09:09:56;22.30;99.90
19586;DHT22;9939;49.246;9.106;2023-07-30T09:12:28;23.00;99.90
19586;DHT22;9939;49.246;9.106;2023-07-30T09:14:55;23.40;99.90
19586;DHT22;9939;49.246;9.106;2023-07-30T09:17:21;23.90;99.90
19586;DHT22;9939;49.246;9.106;2023-07-30T09:19:48;23.40;99.90
19586;DHT22;9939;49.246;9.106;2023-07-30T09:22:35;23.30;99.90
19586;DHT22;9939;49.246;9.106;2023-07-30T09:25:08;24.20;99.90
19586;DHT22;9939;49.246;9.106;2023-07-30T09:27:35;25.40;99.90
19586;DHT22;9939;49.246;9.106;2023-07-30T09:30:03;25.50;99.90
19586;DHT22;9939;49.246;9.106;2023-07-30T09:32:33;25.10;99.90
19586;DHT22;9939;49.246;9.106;2023-07-30T09:35:03;25.10;99.90
19586;DHT22;9939;49.246;9.106;2023-07-30T09:37:33;26.00;99.90
19586;DHT22;9939;49.246;9.106;2023-07-30T09:39:59;25.90;99.90
19586;DHT22;9939;49.246;9.106;2023-07-30T09:42:27;25.70;99.90
19586;DHT22;9939;49.246;9.106;2023-07-30T09:44:54;25.60;99.90
19586;DHT22;9939;49.246;9.106;2023-07-30T09:47:25;26.40;99.90
19586;DHT22;9939;49.246;9.106;2023-07-30T09:49:53;25.70;99.90
19586;DHT22;9939;49.246;9.106;2023-07-30T09:52:20;25.60;99.90
19586;DHT22;9939;49.246;9.106;2023-07-30T09:54:51;26.10;99.90
19586;DHT22;9939;49.246;9.106;2023-07-30T09:57:18;25.50;99.90
19586;DHT22;9939;49.246;9.106;2023-07-30T09:59:45;25.90;99.90
19586;DHT22;9939;49.246;9.106;2023-07-30T10:02:12;25.70;99.90
19586;DHT22;9939;49.246;9.106;2023-07-30T10:04:40;25.30;99.90
19586;DHT22;9939;49.246;9.106;2023-07-30T10:07:10;25.00;99.90
19586;DHT22;9939;49.246;9.106;2023-07-30T10:09:39;24.40;99.90
19586;DHT22;9939;49.246;9.106;2023-07-30T10:12:11;24.30;99.90
19586;DHT22;9939;49.246;9.106;2023-07-30T10:14:39;24.10;99.90
19586;DHT22;9939;49.246;9.106;2023-07-30T10:17:09;24.10;99.90
19586;DHT22;9939;49.246;9.106;2023-07-30T10:19:36;25.50;99.90
19586;DHT22;9939;49.246;9.106;2023-07-30T10:24:39;27.60;99.90
19586;DHT22;9939;49.246;9.106;2023-07-30T10:27:06;28.10;99.90
19586;DHT22;9939;49.246;9.106;2023-07-30T10:29:36;26.10;99.90
19586;DHT22;9939;49.246;9.106;2023-07-30T10:32:04;25.00;99.90
19586;DHT22;9939;49.246;9.106;2023-07-30T10:34:44;24.80;99.90
19586;DHT22;9939;49.246;9.106;2023-07-30T10:37:17;24.40;99.90
19586;DHT22;9939;49.246;9.106;2023-07-30T10:39:47;24.50;99.90
19586;DHT22;9939;49.246;9.106;2023-07-30T10:42:14;24.70;99.90
19586;DHT22;9939;49.246;9.106;2023-07-30T10:44:44;24.80;99.90
19586;DHT22;9939;49.246;9.106;2023-07-30T10:47:12;24.90;99.90
19586;DHT22;9939;49.246;9.106;2023-07-30T10:50:00;26.00;99.90
19586;DHT22;9939;49.246;9.106;2023-07-30T10:52:27;26.10;99.90
19586;DHT22;9939;49.246;9.106;2023-07-30T10:55:00;26.40;99.90
19586;DHT22;9939;49.246;9.106;2023-07-30T10:57:30;27.40;99.90
19586;DHT22;9939;49.246;9.106;2023-07-30T11:00:02;28.60;99.90
19586;DHT22;9939;49.246;9.106;2023-07-30T11:02:29;29.30;99.90
19586;DHT22;9939;49.246;9.106;2023-07-30T11:04:56;28.20;99.90
19586;DHT22;9939;49.246;9.106;2023-07-30T11:07:23;28.20;99.90
19586;DHT22;9939;49.246;9.106;2023-07-30T11:09:59;27.90;99.90
19586;DHT22;9939;49.246;9.106;2023-07-30T11:12:29;27.70;99.90
19586;DHT22;9939;49.246;9.106;2023-07-30T11:15:01;27.80;99.90
19586;DHT22;9939;49.246;9.106;2023-07-30T11:17:28;26.20;99.90
19586;DHT22;9939;49.246;9.106;2023-07-30T11:19:55;25.70;99.90
19586;DHT22;9939;49.246;9.106;2023-07-30T11:22:31;25.30;99.90
19586;DHT22;9939;49.246;9.106;2023-07-30T11:24:58;24.80;99.90
19586;DHT22;9939;49.246;9.106;2023-07-30T11:27:25;24.60;99.90
19586;DHT22;9939;49.246;9.106;2023-07-30T11:29:55;24.60;99.90
19586;DHT22;9939;49.246;9.106;2023-07-30T11:32:22;25.50;99.90
19586;DHT22;9939;49.246;9.106;2023-07-30T11:34:52;26.40;99.90
19586;DHT22;9939;49.246;9.106;2023-07-30T11:37:20;27.30;99.90
19586;DHT22;9939;49.246;9.106;2023-07-30T11:39:48;28.20;99.90
19586;DHT22;9939;49.246;9.106;2023-07-30T11:42:15;28.80;99.90
19586;DHT22;9939;49.246;9.106;2023-07-30T11:44:41;29.20;99.90
19586;DHT22;9939;49.246;9.106;2023-07-30T11:47:08;28.30;99.90
19586;DHT22;9939;49.246;9.106;2023-07-30T11:49:38;27.70;99.90
19586;DHT22;9939;49.246;9.106;2023-07-30T11:52:05;27.00;99.90
19586;DHT22;9939;49.246;9.106;2023-07-30T11:54:32;27.10;99.90
19586;DHT22;9939;49.246;9.106;2023-07-30T11:56:59;27.60;99.90
19586;DHT22;9939;49.246;9.106;2023-07-30T11:59:26;28.30;99.90
19586;DHT22;9939;49.246;9.106;2023-07-30T12:01:52;29.00;99.90
19586;DHT22;9939;49.246;9.106;2023-07-30T12:04:19;28.90;99.90
19586;DHT22;9939;49.246;9.106;2023-07-30T12:06:47;28.50;99.90
19586;DHT22;9939;49.246;9.106;2023-07-30T12:09:15;28.40;99.90
19586;DHT22;9939;49.246;9.106;2023-07-30T12:11:46;28.90;99.90
19586;DHT22;9939;49.246;9.106;2023-07-30T12:14:13;28.90;99.90
19586;DHT22;9939;49.246;9.106;2023-07-30T12:16:40;29.90;99.90
19586;DHT22;9939;49.246;9.106;2023-07-30T12:19:07;30.90;99.90
19586;DHT22;9939;49.246;9.106;2023-07-30T12:21:33;30.80;99.90
19586;DHT22;9939;49.246;9.106;2023-07-30T12:24:04;31.20;99.10
19586;DHT22;9939;49.246;9.106;2023-07-30T12:26:31;30.70;99.90
19586;DHT22;9939;49.246;9.106;2023-07-30T12:28:58;30.50;99.90
19586;DHT22;9939;49.246;9.106;2023-07-30T12:31:24;30.30;99.90
19586;DHT22;9939;49.246;9.106;2023-07-30T12:33:51;30.80;99.00
19586;DHT22;9939;49.246;9.106;2023-07-30T12:36:18;30.70;99.60
19586;DHT22;9939;49.246;9.106;2023-07-30T12:38:45;30.30;99.50
19586;DHT22;9939;49.246;9.106;2023-07-30T12:41:13;30.50;99.20
19586;DHT22;9939;49.246;9.106;2023-07-30T12:43:39;30.90;99.00
19586;DHT22;9939;49.246;9.106;2023-07-30T12:46:06;32.10;97.00
19586;DHT22;9939;49.246;9.106;2023-07-30T12:48:33;32.50;97.10
19586;DHT22;9939;49.246;9.106;2023-07-30T12:51:00;32.90;96.10
19586;DHT22;9939;49.246;9.106;2023-07-30T12:53:26;32.20;96.50
19586;DHT22;9939;49.246;9.106;2023-07-30T12:55:53;30.70;98.80
19586;DHT22;9939;49.246;9.106;2023-07-30T12:58:20;31.60;98.00
19586;DHT22;9939;49.246;9.106;2023-07-30T13:00:47;31.40;96.70
19586;DHT22;9939;49.246;9.106;2023-07-30T13:03:14;31.90;95.90
19586;DHT22;9939;49.246;9.106;2023-07-30T13:05:41;30.40;96.20
19586;DHT22;9939;49.246;9.106;2023-07-30T13:08:07;30.40;97.10
19586;DHT22;9939;49.246;9.106;2023-07-30T13:10:34;31.10;96.60
19586;DHT22;9939;49.246;9.106;2023-07-30T13:13:02;31.80;95.20
19586;DHT22;9939;49.246;9.106;2023-07-30T13:15:28;31.20;95.20
19586;DHT22;9939;49.246;9.106;2023-07-30T13:17:55;31.40;95.60
19586;DHT22;9939;49.246;9.106;2023-07-30T13:20:22;31.80;94.80
19586;DHT22;9939;49.246;9.106;2023-07-30T13:22:50;32.40;94.80
19586;DHT22;9939;49.246;9.106;2023-07-30T13:25:17;32.00;95.70
19586;DHT22;9939;49.246;9.106;2023-07-30T13:27:44;31.60;94.60
19586;DHT22;9939;49.246;9.106;2023-07-30T13:30:10;30.00;96.20
19586;DHT22;9939;49.246;9.106;2023-07-30T13:32:37;28.10;99.20
19586;DHT22;9939;49.246;9.106;2023-07-30T13:35:04;26.60;99.90
19586;DHT22;9939;49.246;9.106;2023-07-30T13:37:31;28.10;99.10
19586;DHT22;9939;49.246;9.106;2023-07-30T13:39:58;30.50;96.20
19586;DHT22;9939;49.246;9.106;2023-07-30T13:42:24;29.10;96.50
19586;DHT22;9939;49.246;9.106;2023-07-30T13:44:51;27.60;98.40
19586;DHT22;9939;49.246;9.106;2023-07-30T13:47:19;28.30;98.60
19586;DHT22;9939;49.246;9.106;2023-07-30T13:49:45;27.60;97.90
19586;DHT22;9939;49.246;9.106;2023-07-30T13:52:14;26.30;99.80
19586;DHT22;9939;49.246;9.106;2023-07-30T13:54:40;26.60;99.90
19586;DHT22;9939;49.246;9.106;2023-07-30T13:57:08;28.10;98.70
19586;DHT22;9939;49.246;9.106;2023-07-30T13:59:35;28.30;98.20
19586;DHT22;9939;49.246;9.106;2023-07-30T14:02:03;26.70;99.70
19586;DHT22;9939;49.246;9.106;2023-07-30T14:04:29;26.20;99.90
19586;DHT22;9939;49.246;9.106;2023-07-30T14:06:56;28.60;98.90
19586;DHT22;9939;49.246;9.106;2023-07-30T14:09:23;31.10;95.90
19586;DHT22;9939;49.246;9.106;2023-07-30T14:11:51;33.10;93.00
19586;DHT22;9939;49.246;9.106;2023-07-30T14:14:18;32.20;92.80
19586;DHT22;9939;49.246;9.106;2023-07-30T14:16:47;29.30;94.80
19586;DHT22;9939;49.246;9.106;2023-07-30T14:19:14;26.50;98.20
19586;DHT22;9939;49.246;9.106;2023-07-30T14:21:41;25.40;99.90
19586;DHT22;9939;49.246;9.106;2023-07-30T14:24:10;25.10;99.90
19586;DHT22;9939;49.246;9.106;2023-07-30T14:26:37;26.40;99.90
19586;DHT22;9939;49.246;9.106;2023-07-30T14:29:04;25.80;99.90
19586;DHT22;9939;49.246;9.106;2023-07-30T14:31:31;25.20;99.90
19586;DHT22;9939;49.246;9.106;2023-07-30T14:33:58;25.10;99.90
19586;DHT22;9939;49.246;9.106;2023-07-30T14:36:25;25.20;99.90
19586;DHT22;9939;49.246;9.106;2023-07-30T14:38:51;25.70;99.90
19586;DHT22;9939;49.246;9.106;2023-07-30T14:41:18;26.10;99.90
19586;DHT22;9939;49.246;9.106;2023-07-30T14:43:45;25.60;99.90
19586;DHT22;9939;49.246;9.106;2023-07-30T14:46:12;25.10;99.90
19586;DHT22;9939;49.246;9.106;2023-07-30T14:48:40;25.00;99.90
19586;DHT22;9939;49.246;9.106;2023-07-30T14:51:07;25.00;99.90
19586;DHT22;9939;49.246;9.106;2023-07-30T14:53:34;26.40;99.90
19586;DHT22;9939;49.246;9.106;2023-07-30T14:56:01;26.90;99.90
19586;DHT22;9939;49.246;9.106;2023-07-30T14:58:28;26.30;99.90
19586;DHT22;9939;49.246;9.106;2023-07-30T15:00:55;25.50;99.90
19586;DHT22;9939;49.246;9.106;2023-07-30T15:03:22;25.70;99.90
19586;DHT22;9939;49.246;9.106;2023-07-30T15:05:48;25.70;99.90
19586;DHT22;9939;49.246;9.106;2023-07-30T15:08:15;24.70;99.90
19586;DHT22;9939;49.246;9.106;2023-07-30T15:10:42;25.60;99.90
19586;DHT22;9939;49.246;9.106;2023-07-30T15:13:09;28.60;99.20
19586;DHT22;9939;49.246;9.106;2023-07-30T15:15:36;31.40;96.10
19586;DHT22;9939;49.246;9.106;2023-07-30T15:18:02;32.90;93.90
19586;DHT22;9939;49.246;9.106;2023-07-30T15:20:32;33.40;92.20
19586;DHT22;9939;49.246;9.106;2023-07-30T15:22:58;30.20;94.10
19586;DHT22;9939;49.246;9.106;2023-07-30T15:25:25;29.10;95.60
19586;DHT22;9939;49.246;9.106;2023-07-30T15:27:52;29.00;96.30
19586;DHT22;9939;49.246;9.106;2023-07-30T15:30:19;30.00;94.10
19586;DHT22;9939;49.246;9.106;2023-07-30T15:32:46;31.00;93.80
19586;DHT22;9939;49.246;9.106;2023-07-30T15:35:13;30.60;93.30
19586;DHT22;9939;49.246;9.106;2023-07-30T15:37:42;33.30;91.70
19586;DHT22;9939;49.246;9.106;2023-07-30T15:40:10;33.80;90.60
19586;DHT22;9939;49.246;9.106;2023-07-30T15:42:37;32.90;89.40
19586;DHT22;9939;49.246;9.106;2023-07-30T15:45:04;33.50;90.30
19586;DHT22;9939;49.246;9.106;2023-07-30T15:47:31;33.20;89.80
19586;DHT22;9939;49.246;9.106;2023-07-30T15:49:58;33.50;89.80